createdAt,value
2023-03-24T00:03:02.680Z,99300.66
2023-03-24T00:07:06.121Z,99299.91
2023-03-24T00:11:11.708Z,99295.47
2023-03-24T00:15:19.099Z,99293.78
2023-03-24T00:19:23.671Z,99296.47
2023-03-24T00:23:28.037Z,99292.94
2023-03-24T00:27:36.775Z,99293.84
2023-03-24T00:31:40.611Z,99292.19
2023-03-24T00:35:45.873Z,99279.03
2023-03-24T00:39:50.040Z,99280.03
2023-03-24T00:43:56.342Z,99283.63
2023-03-24T00:47:59.924Z,99275.81
2023-03-24T00:52:10.268Z,99274.16
2023-03-24T00:56:15.625Z,99267.16
2023-03-24T01:00:21.285Z,99252.25
2023-03-24T01:04:26.338Z,99234.72
2023-03-24T01:08:30.966Z,99239.25
2023-03-24T01:12:36.966Z,99226.25
2023-03-24T01:16:40.935Z,99228.19
2023-03-24T01:20:46.585Z,99229.97
2023-03-24T01:24:53.148Z,99231.69
2023-03-24T01:28:56.959Z,99238.81
2023-03-24T01:33:00.592Z,99238.94
2023-03-24T01:37:04.593Z,99233.81
2023-03-24T01:41:09.752Z,99222.41
2023-03-24T01:45:45.657Z,99226.03
2023-03-24T01:49:53.857Z,99210.19
2023-03-24T01:54:01.257Z,99206.72
2023-03-24T01:58:07.356Z,99202.28
2023-03-24T02:02:30.075Z,99200.50
2023-03-24T02:06:36.262Z,99195.19
2023-03-24T02:10:40.399Z,99204.09
2023-03-24T02:14:45.264Z,99203.34
2023-03-24T02:18:57.201Z,99199.88
2023-03-24T02:23:31.063Z,99206.13
2023-03-24T02:27:55.118Z,99207.03
2023-03-24T02:32:24.448Z,99213.16
2023-03-24T02:36:58.415Z,99221.91
2023-03-24T02:41:07.998Z,99208.69
2023-03-24T02:45:25.056Z,99201.63
2023-03-24T02:49:36.993Z,99186.66
2023-03-24T02:53:52.722Z,99183.19
2023-03-24T02:58:08.596Z,99192.03
2023-03-24T03:02:28.709Z,99180.59
2023-03-24T03:06:39.730Z,99177.97
2023-03-24T03:10:46.540Z,99174.56
2023-03-24T03:14:56.207Z,99175.47
2023-03-24T03:19:03.408Z,99179.03
2023-03-24T03:23:13.395Z,99169.38
2023-03-24T03:27:20.532Z,99177.38
2023-03-24T03:31:31.035Z,99176.53
2023-03-24T03:35:38.857Z,99173.13
2023-03-24T03:39:48.658Z,99168.75
2023-03-24T03:43:53.325Z,99177.59
2023-03-24T03:47:58.299Z,99182.06
2023-03-24T03:52:01.691Z,99180.34
2023-03-24T03:56:05.510Z,99167.22
2023-03-24T04:00:20.543Z,99173.41
2023-03-24T04:05:15.114Z,99174.38
2023-03-24T04:09:36.914Z,99175.22
2023-03-24T04:13:53.991Z,99182.22
2023-03-24T04:18:27.265Z,99175.06
2023-03-24T04:22:50.064Z,99184.72
2023-03-24T04:27:00.770Z,99184.72
2023-03-24T04:31:14.516Z,99190.88
2023-03-24T04:35:26.444Z,99187.38
2023-03-24T04:39:59.102Z,99186.53
2023-03-24T04:44:03.398Z,99190.94
2023-03-24T04:48:12.127Z,99188.31
2023-03-24T04:52:41.404Z,99183.03
2023-03-24T04:56:49.599Z,99179.47
2023-03-24T05:00:59.645Z,99173.31
2023-03-24T05:05:06.624Z,99160.25
2023-03-24T05:09:14.473Z,99138.38
2023-03-24T05:13:19.111Z,99141.13
2023-03-24T05:17:26.546Z,99140.28
2023-03-24T05:21:31.875Z,99142.91
2023-03-24T05:25:36.675Z,99141.13
2023-03-24T05:29:41.540Z,99141.13
2023-03-24T05:33:47.336Z,99142.88
2023-03-24T05:37:53.852Z,99144.69
2023-03-24T05:41:57.083Z,99135.09
2023-03-24T05:46:01.613Z,99121.94
2023-03-24T05:50:09.633Z,99117.56
2023-03-24T05:54:13.290Z,99117.56
2023-03-24T05:58:19.978Z,99103.47
2023-03-24T06:02:28.685Z,99096.38
2023-03-24T06:06:38.347Z,99093.75
2023-03-24T06:10:41.756Z,99084.06
2023-03-24T06:14:45.574Z,99071.72
2023-03-24T06:18:52.815Z,99094.50
2023-03-24T06:23:16.742Z,99090.84
2023-03-24T06:27:46.231Z,99087.13
2023-03-24T06:31:50.214Z,99079.06
2023-03-24T06:35:55.735Z,99065.81
2023-03-24T06:39:58.795Z,99065.66
2023-03-24T06:44:05.974Z,99085.75
2023-03-24T06:48:09.895Z,99071.53
2023-03-24T06:52:14.578Z,99058.19
2023-03-24T06:56:21.106Z,99054.50
2023-03-24T07:00:30.282Z,99081.63
2023-03-24T07:04:43.967Z,99077.97
2023-03-24T07:08:55.353Z,99066.41
2023-03-24T07:13:03.302Z,99080.34
2023-03-24T07:17:08.574Z,99075.72
2023-03-24T07:21:20.536Z,99087.84
2023-03-24T07:25:28.077Z,99081.66
2023-03-24T07:29:38.309Z,99069.19
2023-03-24T07:33:55.197Z,99081.31
2023-03-24T07:37:59.328Z,99089.09
2023-03-24T07:42:03.995Z,99082.91
2023-03-24T07:46:25.437Z,99070.31
2023-03-24T07:50:29.283Z,99089.47
2023-03-24T07:54:32.794Z,99082.28
2023-03-24T07:58:37.253Z,99075.03
2023-03-24T08:03:01.338Z,99087.16
2023-03-24T08:07:22.993Z,99084.53
2023-03-24T08:11:25.970Z,99066.75
2023-03-24T08:15:30.468Z,99077.91
2023-03-24T08:19:33.549Z,99077.81
2023-03-24T08:23:37.119Z,99073.31
2023-03-24T08:27:43.462Z,99069.56
2023-03-24T08:31:48.005Z,99077.34
2023-03-24T08:35:51.649Z,99078.94
2023-03-24T08:39:58.778Z,99072.41
2023-03-24T08:44:06.246Z,99074.72
2023-03-24T08:48:12.072Z,99081.56
2023-03-24T08:52:15.130Z,99074.16
2023-03-24T08:56:18.582Z,99077.44
2023-03-24T09:00:22.699Z,99072.78
2023-03-24T09:04:27.491Z,99078.69
2023-03-24T09:08:31.583Z,99065.13
2023-03-24T09:12:34.679Z,99070.88
2023-03-24T09:16:38.038Z,99065.13
2023-03-24T09:20:42.720Z,99071.00
2023-03-24T09:24:45.767Z,99074.47
2023-03-24T09:28:48.819Z,99064.44
2023-03-24T09:32:51.992Z,99056.31
2023-03-24T09:36:56.527Z,99061.28
2023-03-24T09:41:03.010Z,99073.47
2023-03-24T09:45:13.200Z,99073.25
2023-03-24T09:49:23.612Z,99072.06
2023-03-24T09:53:37.033Z,99070.88
2023-03-24T09:57:42.301Z,99074.16
2023-03-24T10:01:45.610Z,99074.78
2023-03-24T10:05:55.386Z,99070.06
2023-03-24T10:10:01.909Z,99061.88
2023-03-24T10:14:15.339Z,99056.38
2023-03-24T10:18:31.946Z,99056.75
2023-03-24T10:22:41.379Z,99054.34
2023-03-24T10:26:54.139Z,99046.09
2023-03-24T10:31:01.511Z,99047.69
2023-03-24T10:35:10.065Z,99037.06
2023-03-24T10:39:19.996Z,99036.94
2023-03-24T10:43:28.268Z,99035.97
2023-03-24T10:47:33.992Z,99039.34
2023-03-24T10:51:37.762Z,99024.00
2023-03-24T10:55:43.436Z,99014.09
2023-03-24T10:59:56.075Z,99018.28
2023-03-24T11:04:04.516Z,99017.13
2023-03-24T11:08:26.002Z,99013.97
2023-03-24T11:12:31.185Z,98998.44
2023-03-24T11:16:39.612Z,99000.81
2023-03-24T11:20:45.972Z,98997.97
2023-03-24T11:24:51.999Z,98991.50
2023-03-24T11:28:58.157Z,98996.59
2023-03-24T11:33:05.006Z,98998.19
2023-03-24T11:37:13.261Z,98987.22
2023-03-24T11:41:22.697Z,98978.13
2023-03-24T11:45:35.689Z,98975.97
2023-03-24T11:49:46.349Z,98969.19
2023-03-24T11:53:52.747Z,98974.91
2023-03-24T11:57:59.331Z,98967.66
2023-03-24T12:02:13.246Z,98971.69
2023-03-24T12:06:31.714Z,98967.75
2023-03-24T12:10:46.006Z,98961.13
2023-03-24T12:15:07.814Z,98961.22
2023-03-24T12:19:45.151Z,98960.78
2023-03-24T12:23:58.761Z,98959.44
2023-03-24T12:28:20.011Z,98947.16
2023-03-24T12:32:49.510Z,98937.84
2023-03-24T12:37:01.344Z,98944.75
2023-03-24T12:41:40.601Z,98937.50
2023-03-24T12:45:49.622Z,98944.91
2023-03-24T12:50:11.287Z,98943.78
2023-03-24T12:54:27.597Z,98938.03
2023-03-24T12:58:41.545Z,98936.72
2023-03-24T13:02:49.985Z,98932.22
2023-03-24T13:07:00.833Z,98934.75
2023-03-24T13:11:14.901Z,98936.38
2023-03-24T13:15:31.643Z,98934.28
2023-03-24T13:19:38.719Z,98928.66
2023-03-24T13:23:56.739Z,98922.19
2023-03-24T13:28:06.347Z,98924.72
2023-03-24T13:32:17.315Z,98922.03
2023-03-24T13:36:43.026Z,98921.88
2023-03-24T13:40:51.900Z,98914.56
2023-03-24T13:44:54.792Z,98908.97
2023-03-24T13:49:00.278Z,98899.06
2023-03-24T13:53:14.054Z,98914.97
2023-03-24T13:57:20.543Z,98921.16
2023-03-24T14:01:35.495Z,98918.16
2023-03-24T14:05:57.693Z,98929.06
2023-03-24T14:10:03.689Z,98918.16
2023-03-24T14:14:08.709Z,98909.13
2023-03-24T14:18:43.345Z,98904.41
2023-03-24T14:22:48.553Z,98910.63
2023-03-24T14:26:51.597Z,98913.22
2023-03-24T14:31:15.515Z,98904.34
2023-03-24T14:35:37.164Z,98906.47
2023-03-24T14:39:42.952Z,98911.75
2023-03-24T14:44:03.776Z,98917.09
2023-03-24T14:48:18.104Z,98918.72
2023-03-24T14:52:26.259Z,98921.47
2023-03-24T14:56:36.128Z,98926.19
2023-03-24T15:00:51.711Z,98930.84
2023-03-24T15:05:26.103Z,98931.09
2023-03-24T15:09:30.552Z,98934.94
2023-03-24T15:13:37.329Z,98934.47
2023-03-24T15:17:43.444Z,98946.22
2023-03-24T15:21:48.576Z,98950.06
2023-03-24T15:25:54.702Z,98957.53
2023-03-24T15:30:01.096Z,98954.03
2023-03-24T15:34:24.066Z,98954.78
2023-03-24T15:38:31.528Z,98959.16
2023-03-24T15:42:42.541Z,98975.75
2023-03-24T15:46:46.050Z,98988.69
2023-03-24T15:51:00.400Z,99012.09
2023-03-24T15:55:08.767Z,99013.66
2023-03-24T15:59:16.151Z,99013.97
2023-03-24T16:03:19.310Z,99011.34
2023-03-24T16:07:29.665Z,99007.66
2023-03-24T16:11:32.834Z,99008.22
2023-03-24T16:15:37.323Z,99003.22
2023-03-24T16:19:40.546Z,99002.00
2023-03-24T16:23:44.145Z,98990.78
2023-03-24T16:27:47.183Z,98996.97
2023-03-24T16:31:53.265Z,98984.81
2023-03-24T16:35:56.289Z,98978.75
2023-03-24T16:40:01.153Z,98985.09
2023-03-24T16:44:05.397Z,98988.78
2023-03-24T16:48:10.868Z,98988.09
2023-03-24T16:52:14.026Z,98997.06
2023-03-24T16:56:19.667Z,98999.19
2023-03-24T17:00:23.697Z,99006.44
2023-03-24T17:04:31.120Z,98978.25
2023-03-24T17:08:34.052Z,98974.06
2023-03-24T17:12:37.535Z,98975.81
2023-03-24T17:16:43.546Z,98974.09
2023-03-24T17:20:48.501Z,98975.13
2023-03-24T17:24:57.578Z,98968.09
2023-03-24T17:29:00.550Z,98963.84
2023-03-24T17:33:03.736Z,98966.78
2023-03-24T17:37:08.274Z,98978.44
2023-03-24T17:41:11.513Z,98979.38
2023-03-24T17:45:16.095Z,98976.03
2023-03-24T17:49:19.097Z,98983.38
2023-03-24T17:53:25.655Z,99000.28
2023-03-24T17:57:28.766Z,98984.38
2023-03-24T18:01:35.042Z,98996.91
2023-03-24T18:05:38.349Z,98997.03
2023-03-24T18:09:42.668Z,98988.13
2023-03-24T18:13:46.146Z,98997.94
2023-03-24T18:17:49.190Z,99013.88
2023-03-24T18:21:52.293Z,99018.38
2023-03-24T18:26:02.229Z,99007.03
2023-03-24T18:30:06.823Z,99007.16
2023-03-24T18:34:09.901Z,98982.59
2023-03-24T18:38:15.220Z,98981.28
2023-03-24T18:42:19.718Z,99001.94
2023-03-24T18:46:23.535Z,99025.94
2023-03-24T18:50:26.595Z,99003.97
2023-03-24T18:54:29.661Z,98997.94
2023-03-24T18:58:34.976Z,98998.03
2023-03-24T19:02:38.087Z,99006.84
2023-03-24T19:06:42.495Z,99024.63
2023-03-24T19:10:46.202Z,99038.94
2023-03-24T19:14:50.754Z,99036.38
2023-03-24T19:18:54.055Z,99039.91
2023-03-24T19:22:57.031Z,99018.78
2023-03-24T19:27:00.853Z,99009.44
2023-03-24T19:31:10.718Z,98997.28
2023-03-24T19:35:14.228Z,99009.91
2023-03-24T19:39:17.457Z,99010.06
2023-03-24T19:43:20.728Z,99010.16
2023-03-24T19:47:25.069Z,99005.66
2023-03-24T19:51:28.113Z,99015.28
2023-03-24T19:55:31.486Z,99015.28
2023-03-24T19:59:35.343Z,99009.16
2023-03-24T20:03:40.089Z,99008.34
2023-03-24T20:07:43.248Z,99013.81
2023-03-24T20:11:47.558Z,99021.13
2023-03-24T20:15:50.937Z,99021.28
2023-03-24T20:20:04.347Z,99029.31
2023-03-24T20:24:08.009Z,99026.78
2023-03-24T20:28:10.980Z,99031.25
2023-03-24T20:32:14.418Z,99030.44
2023-03-24T20:36:19.112Z,99030.53
2023-03-24T20:40:22.263Z,99023.53
2023-03-24T20:44:25.543Z,99013.06
2023-03-24T20:48:29.534Z,99009.66
2023-03-24T20:52:34.969Z,99010.63
2023-03-24T20:56:38.672Z,98992.09
2023-03-24T21:00:46.204Z,98996.56
2023-03-24T21:04:49.691Z,98987.09
2023-03-24T21:08:54.965Z,98987.31
2023-03-24T21:12:58.014Z,98990.00
2023-03-24T21:17:01.414Z,98989.16
2023-03-24T21:21:04.875Z,98987.41
2023-03-24T21:25:09.752Z,98979.53
2023-03-24T21:29:13.150Z,98969.97
2023-03-24T21:33:16.805Z,98964.81
2023-03-24T21:37:19.875Z,98975.56
2023-03-24T21:41:24.330Z,98970.38
2023-03-24T21:45:27.695Z,98966.06
2023-03-24T21:49:30.664Z,98951.09
2023-03-24T21:53:35.028Z,98934.34
2023-03-24T21:57:39.453Z,98949.41
2023-03-24T22:01:42.791Z,98946.78
2023-03-24T22:05:45.949Z,98966.25
2023-03-24T22:09:50.801Z,98993.63
2023-03-24T22:13:55.188Z,98982.09
2023-03-24T22:17:58.745Z,98967.03
2023-03-24T22:22:02.186Z,98977.53
2023-03-24T22:26:07.554Z,98990.72
2023-03-24T22:30:14.685Z,98989.91
2023-03-24T22:34:17.781Z,98986.41
2023-03-24T22:38:20.818Z,98988.28
2023-03-24T22:42:23.940Z,98980.44
2023-03-24T22:46:28.357Z,98976.16
2023-03-24T22:50:31.452Z,98977.94
2023-03-24T22:54:34.630Z,98967.34
2023-03-24T22:58:37.682Z,98968.28
2023-03-24T23:02:42.451Z,98982.28
2023-03-24T23:06:46.172Z,98986.63
2023-03-24T23:10:49.277Z,98981.34
2023-03-24T23:14:54.427Z,99006.06
2023-03-24T23:18:58.928Z,99010.50
2023-03-24T23:23:03.748Z,99018.53
2023-03-24T23:27:08.105Z,99016.84
2023-03-24T23:31:13.556Z,99025.72
2023-03-24T23:35:24.822Z,99039.84
2023-03-24T23:39:27.952Z,99032.88
2023-03-24T23:43:30.917Z,99027.69
2023-03-24T23:47:34.683Z,99025.16
2023-03-24T23:51:39.070Z,99030.56
2023-03-24T23:55:42.345Z,99022.72
2023-03-24T23:59:45.973Z,99026.34
